sensor_id;sensor_type;location;lat;lon;timestamp;temperature;humidity
21770;DHT22;11046;49.558;8.674;2022-09-09T00:09:11;16.60;75.60
21770;DHT22;11046;49.558;8.674;2022-09-09T00:12:29;16.50;75.20
21770;DHT22;11046;49.558;8.674;2022-09-09T00:22:20;16.50;75.80
21770;DHT22;11046;49.558;8.674;2022-09-09T00:25:37;16.40;75.80
21770;DHT22;11046;49.558;8.674;2022-09-09T00:32:19;16.50;76.30
21770;DHT22;11046;49.558;8.674;2022-09-09T00:35:24;16.50;76.30
21770;DHT22;11046;49.558;8.674;2022-09-09T00:38:35;16.60;76.30
21770;DHT22;11046;49.558;8.674;2022-09-09T00:41:55;16.60;76.30
21770;DHT22;11046;49.558;8.674;2022-09-09T00:45:15;16.60;76.30
21770;DHT22;11046;49.558;8.674;2022-09-09T00:48:21;16.70;76.20
21770;DHT22;11046;49.558;8.674;2022-09-09T00:54:40;16.70;76.00
21770;DHT22;11046;49.558;8.674;2022-09-09T00:57:44;16.70;75.80
21770;DHT22;11046;49.558;8.674;2022-09-09T01:00:58;16.70;75.80
21770;DHT22;11046;49.558;8.674;2022-09-09T01:04:09;16.80;75.70
21770;DHT22;11046;49.558;8.674;2022-09-09T01:07:22;16.90;75.60
21770;DHT22;11046;49.558;8.674;2022-09-09T01:10:43;17.00;75.40
21770;DHT22;11046;49.558;8.674;2022-09-09T01:13:56;17.00;75.20
21770;DHT22;11046;49.558;8.674;2022-09-09T01:27:01;17.00;76.50
21770;DHT22;11046;49.558;8.674;2022-09-09T01:30:11;17.00;76.40
21770;DHT22;11046;49.558;8.674;2022-09-09T01:33:15;17.00;76.30
21770;DHT22;11046;49.558;8.674;2022-09-09T01:39:43;16.90;76.40
21770;DHT22;11046;49.558;8.674;2022-09-09T01:42:47;16.90;76.40
21770;DHT22;11046;49.558;8.674;2022-09-09T01:45:51;16.80;76.20
21770;DHT22;11046;49.558;8.674;2022-09-09T01:48:54;16.90;76.30
21770;DHT22;11046;49.558;8.674;2022-09-09T01:51:56;16.80;76.40
21770;DHT22;11046;49.558;8.674;2022-09-09T01:55:08;16.80;76.40
21770;DHT22;11046;49.558;8.674;2022-09-09T01:58:34;16.90;76.40
21770;DHT22;11046;49.558;8.674;2022-09-09T02:02:03;16.90;76.50
21770;DHT22;11046;49.558;8.674;2022-09-09T02:08:23;16.80;76.40
21770;DHT22;11046;49.558;8.674;2022-09-09T02:11:34;16.80;76.70
21770;DHT22;11046;49.558;8.674;2022-09-09T02:15:03;16.80;76.50
21770;DHT22;11046;49.558;8.674;2022-09-09T02:18:21;16.90;76.30
21770;DHT22;11046;49.558;8.674;2022-09-09T02:21:24;16.90;76.20
21770;DHT22;11046;49.558;8.674;2022-09-09T02:24:26;16.90;76.20
21770;DHT22;11046;49.558;8.674;2022-09-09T02:27:41;16.90;76.10
21770;DHT22;11046;49.558;8.674;2022-09-09T02:30:45;17.00;76.10
21770;DHT22;11046;49.558;8.674;2022-09-09T02:33:56;17.00;75.90
21770;DHT22;11046;49.558;8.674;2022-09-09T02:36:59;17.00;75.80
21770;DHT22;11046;49.558;8.674;2022-09-09T02:40:03;17.00;75.80
21770;DHT22;11046;49.558;8.674;2022-09-09T02:43:07;17.00;75.70
21770;DHT22;11046;49.558;8.674;2022-09-09T02:50:14;17.00;76.00
21770;DHT22;11046;49.558;8.674;2022-09-09T02:53:27;16.90;76.10
21770;DHT22;11046;49.558;8.674;2022-09-09T02:56:33;16.80;76.20
21770;DHT22;11046;49.558;8.674;2022-09-09T02:59:38;16.80;76.20
21770;DHT22;11046;49.558;8.674;2022-09-09T03:02:39;16.80;76.60
21770;DHT22;11046;49.558;8.674;2022-09-09T03:05:42;16.70;76.60
21770;DHT22;11046;49.558;8.674;2022-09-09T03:08:43;16.70;76.70
21770;DHT22;11046;49.558;8.674;2022-09-09T03:11:45;16.70;76.70
21770;DHT22;11046;49.558;8.674;2022-09-09T03:14:48;16.70;76.80
21770;DHT22;11046;49.558;8.674;2022-09-09T03:17:49;16.70;76.80
21770;DHT22;11046;49.558;8.674;2022-09-09T03:20:49;16.70;77.20
21770;DHT22;11046;49.558;8.674;2022-09-09T03:23:52;16.60;77.40
21770;DHT22;11046;49.558;8.674;2022-09-09T03:26:53;16.50;77.60
21770;DHT22;11046;49.558;8.674;2022-09-09T03:29:56;16.50;77.70
21770;DHT22;11046;49.558;8.674;2022-09-09T03:32:59;16.50;77.70
21770;DHT22;11046;49.558;8.674;2022-09-09T03:36:05;16.50;77.60
21770;DHT22;11046;49.558;8.674;2022-09-09T03:39:06;16.40;77.60
21770;DHT22;11046;49.558;8.674;2022-09-09T03:42:07;16.40;77.50
21770;DHT22;11046;49.558;8.674;2022-09-09T03:45:09;16.40;77.70
21770;DHT22;11046;49.558;8.674;2022-09-09T03:48:14;16.30;77.90
21770;DHT22;11046;49.558;8.674;2022-09-09T03:51:15;16.40;77.90
21770;DHT22;11046;49.558;8.674;2022-09-09T03:54:17;16.30;77.90
21770;DHT22;11046;49.558;8.674;2022-09-09T03:57:18;16.30;78.00
21770;DHT22;11046;49.558;8.674;2022-09-09T04:00:19;16.20;78.00
21770;DHT22;11046;49.558;8.674;2022-09-09T04:03:26;16.20;77.90
21770;DHT22;11046;49.558;8.674;2022-09-09T04:06:27;16.10;77.90
21770;DHT22;11046;49.558;8.674;2022-09-09T04:09:28;16.10;78.00
21770;DHT22;11046;49.558;8.674;2022-09-09T04:12:29;16.10;78.00
21770;DHT22;11046;49.558;8.674;2022-09-09T04:15:30;15.90;78.10
21770;DHT22;11046;49.558;8.674;2022-09-09T04:18:31;15.90;78.30
21770;DHT22;11046;49.558;8.674;2022-09-09T04:21:34;15.90;78.20
21770;DHT22;11046;49.558;8.674;2022-09-09T04:24:36;15.90;78.30
21770;DHT22;11046;49.558;8.674;2022-09-09T04:27:37;15.90;78.40
21770;DHT22;11046;49.558;8.674;2022-09-09T04:30:38;15.80;78.40
21770;DHT22;11046;49.558;8.674;2022-09-09T04:33:40;15.80;78.70
21770;DHT22;11046;49.558;8.674;2022-09-09T04:36:43;15.80;78.80
21770;DHT22;11046;49.558;8.674;2022-09-09T04:39:43;15.80;79.00
21770;DHT22;11046;49.558;8.674;2022-09-09T04:42:46;15.80;79.00
21770;DHT22;11046;49.558;8.674;2022-09-09T04:45:49;15.80;79.00
21770;DHT22;11046;49.558;8.674;2022-09-09T04:48:52;15.80;78.90
21770;DHT22;11046;49.558;8.674;2022-09-09T04:51:54;15.80;79.20
21770;DHT22;11046;49.558;8.674;2022-09-09T04:54:55;15.90;79.30
21770;DHT22;11046;49.558;8.674;2022-09-09T04:57:55;15.80;79.20
21770;DHT22;11046;49.558;8.674;2022-09-09T05:01:08;15.80;79.50
21770;DHT22;11046;49.558;8.674;2022-09-09T05:04:11;15.80;79.80
21770;DHT22;11046;49.558;8.674;2022-09-09T05:07:12;15.90;79.60
21770;DHT22;11046;49.558;8.674;2022-09-09T05:10:17;15.90;79.70
21770;DHT22;11046;49.558;8.674;2022-09-09T05:13:24;15.90;79.70
21770;DHT22;11046;49.558;8.674;2022-09-09T05:16:25;16.00;79.50
21770;DHT22;11046;49.558;8.674;2022-09-09T05:19:26;16.00;79.40
21770;DHT22;11046;49.558;8.674;2022-09-09T05:22:28;16.10;79.30
21770;DHT22;11046;49.558;8.674;2022-09-09T05:25:30;16.10;79.30
21770;DHT22;11046;49.558;8.674;2022-09-09T05:28:34;16.10;79.30
21770;DHT22;11046;49.558;8.674;2022-09-09T05:31:35;16.20;79.40
21770;DHT22;11046;49.558;8.674;2022-09-09T05:34:40;16.20;79.20
21770;DHT22;11046;49.558;8.674;2022-09-09T05:37:41;16.30;79.20
21770;DHT22;11046;49.558;8.674;2022-09-09T05:40:47;16.20;79.20
21770;DHT22;11046;49.558;8.674;2022-09-09T05:43:49;16.30;79.40
21770;DHT22;11046;49.558;8.674;2022-09-09T05:46:50;16.40;79.50
21770;DHT22;11046;49.558;8.674;2022-09-09T05:49:51;16.50;79.30
21770;DHT22;11046;49.558;8.674;2022-09-09T05:52:54;16.60;79.20
21770;DHT22;11046;49.558;8.674;2022-09-09T05:56:08;16.70;79.20
21770;DHT22;11046;49.558;8.674;2022-09-09T05:59:11;16.70;79.20
21770;DHT22;11046;49.558;8.674;2022-09-09T06:02:13;16.80;79.00
21770;DHT22;11046;49.558;8.674;2022-09-09T06:05:14;16.80;78.80
21770;DHT22;11046;49.558;8.674;2022-09-09T06:08:15;16.80;78.80
21770;DHT22;11046;49.558;8.674;2022-09-09T06:11:22;16.80;78.80
21770;DHT22;11046;49.558;8.674;2022-09-09T06:14:24;16.80;78.80
21770;DHT22;11046;49.558;8.674;2022-09-09T06:17:27;16.90;78.80
21770;DHT22;11046;49.558;8.674;2022-09-09T06:20:28;16.90;78.60
21770;DHT22;11046;49.558;8.674;2022-09-09T06:23:33;17.00;78.70
21770;DHT22;11046;49.558;8.674;2022-09-09T06:26:37;17.00;78.60
21770;DHT22;11046;49.558;8.674;2022-09-09T06:29:39;17.00;78.40
21770;DHT22;11046;49.558;8.674;2022-09-09T06:32:41;17.00;78.30
21770;DHT22;11046;49.558;8.674;2022-09-09T06:35:51;17.00;78.30
21770;DHT22;11046;49.558;8.674;2022-09-09T06:38:55;16.90;78.30
21770;DHT22;11046;49.558;8.674;2022-09-09T06:41:55;16.90;78.20
21770;DHT22;11046;49.558;8.674;2022-09-09T06:45:21;16.90;78.80
21770;DHT22;11046;49.558;8.674;2022-09-09T06:48:28;17.10;78.70
21770;DHT22;11046;49.558;8.674;2022-09-09T06:51:35;17.20;78.30
21770;DHT22;11046;49.558;8.674;2022-09-09T06:54:37;17.40;78.30
21770;DHT22;11046;49.558;8.674;2022-09-09T06:57:39;17.80;77.80
21770;DHT22;11046;49.558;8.674;2022-09-09T07:00:45;17.90;76.70
21770;DHT22;11046;49.558;8.674;2022-09-09T07:03:48;18.00;76.60
21770;DHT22;11046;49.558;8.674;2022-09-09T07:06:50;18.10;76.20
21770;DHT22;11046;49.558;8.674;2022-09-09T07:10:03;18.30;76.10
21770;DHT22;11046;49.558;8.674;2022-09-09T07:13:05;18.50;75.80
21770;DHT22;11046;49.558;8.674;2022-09-09T07:16:17;18.70;75.00
21770;DHT22;11046;49.558;8.674;2022-09-09T07:19:18;18.80;74.60
21770;DHT22;11046;49.558;8.674;2022-09-09T07:22:20;18.80;74.10
21770;DHT22;11046;49.558;8.674;2022-09-09T07:25:21;18.70;73.90
21770;DHT22;11046;49.558;8.674;2022-09-09T07:28:22;18.90;74.50
21770;DHT22;11046;49.558;8.674;2022-09-09T07:31:27;19.10;74.10
21770;DHT22;11046;49.558;8.674;2022-09-09T07:34:33;19.50;73.00
21770;DHT22;11046;49.558;8.674;2022-09-09T07:37:47;19.50;72.20
21770;DHT22;11046;49.558;8.674;2022-09-09T07:41:01;19.40;72.20
21770;DHT22;11046;49.558;8.674;2022-09-09T07:44:31;19.70;72.40
21770;DHT22;11046;49.558;8.674;2022-09-09T07:48:17;19.90;71.40
21770;DHT22;11046;49.558;8.674;2022-09-09T07:51:46;19.80;70.50
21770;DHT22;11046;49.558;8.674;2022-09-09T07:55:19;19.70;70.80
21770;DHT22;11046;49.558;8.674;2022-09-09T07:58:31;19.40;70.30
21770;DHT22;11046;49.558;8.674;2022-09-09T08:01:55;19.30;70.90
21770;DHT22;11046;49.558;8.674;2022-09-09T08:09:22;19.50;70.50
21770;DHT22;11046;49.558;8.674;2022-09-09T08:12:33;19.60;70.50
21770;DHT22;11046;49.558;8.674;2022-09-09T08:15:46;20.00;70.70
21770;DHT22;11046;49.558;8.674;2022-09-09T08:19:00;20.40;69.60
21770;DHT22;11046;49.558;8.674;2022-09-09T08:22:16;20.60;68.10
21770;DHT22;11046;49.558;8.674;2022-09-09T08:25:22;20.50;67.40
21770;DHT22;11046;49.558;8.674;2022-09-09T08:28:47;20.50;67.50
21770;DHT22;11046;49.558;8.674;2022-09-09T08:31:57;20.50;67.40
21770;DHT22;11046;49.558;8.674;2022-09-09T08:35:12;20.40;67.30
21770;DHT22;11046;49.558;8.674;2022-09-09T08:38:29;20.20;68.10
21770;DHT22;11046;49.558;8.674;2022-09-09T08:45:47;19.90;71.00
21770;DHT22;11046;49.558;8.674;2022-09-09T08:53:04;19.50;72.10
21770;DHT22;11046;49.558;8.674;2022-09-09T08:56:25;19.50;72.80
21770;DHT22;11046;49.558;8.674;2022-09-09T08:59:33;19.60;73.20
21770;DHT22;11046;49.558;8.674;2022-09-09T09:10:11;20.10;72.70
21770;DHT22;11046;49.558;8.674;2022-09-09T09:13:19;20.30;71.10
21770;DHT22;11046;49.558;8.674;2022-09-09T09:16:53;20.30;70.80
21770;DHT22;11046;49.558;8.674;2022-09-09T09:20:10;20.30;70.30
21770;DHT22;11046;49.558;8.674;2022-09-09T09:23:32;20.40;70.40
21770;DHT22;11046;49.558;8.674;2022-09-09T09:27:15;20.50;69.90
21770;DHT22;11046;49.558;8.674;2022-09-09T09:30:26;20.50;69.70
21770;DHT22;11046;49.558;8.674;2022-09-09T09:34:04;20.70;70.20
21770;DHT22;11046;49.558;8.674;2022-09-09T09:37:26;21.20;68.00
21770;DHT22;11046;49.558;8.674;2022-09-09T09:40:33;21.20;66.40
21770;DHT22;11046;49.558;8.674;2022-09-09T09:43:36;21.20;66.80
21770;DHT22;11046;49.558;8.674;2022-09-09T09:46:42;21.20;66.40
21770;DHT22;11046;49.558;8.674;2022-09-09T09:50:01;21.00;66.40
21770;DHT22;11046;49.558;8.674;2022-09-09T09:56:31;21.10;66.00
21770;DHT22;11046;49.558;8.674;2022-09-09T09:59:36;21.20;65.30
21770;DHT22;11046;49.558;8.674;2022-09-09T10:02:51;21.20;65.00
21770;DHT22;11046;49.558;8.674;2022-09-09T10:05:57;21.20;64.20
21770;DHT22;11046;49.558;8.674;2022-09-09T10:09:02;20.90;64.20
21770;DHT22;11046;49.558;8.674;2022-09-09T10:19:00;20.00;67.90
21770;DHT22;11046;49.558;8.674;2022-09-09T10:34:04;18.70;73.80
21770;DHT22;11046;49.558;8.674;2022-09-09T10:36:49;18.60;75.10
21770;DHT22;11046;49.558;8.674;2022-09-09T10:50:06;21.00;69.60
21770;DHT22;11046;49.558;8.674;2022-09-09T10:53:37;21.40;68.80
21770;DHT22;11046;49.558;8.674;2022-09-09T10:56:43;21.80;68.20
21770;DHT22;11046;49.558;8.674;2022-09-09T10:59:50;22.10;66.80
21770;DHT22;11046;49.558;8.674;2022-09-09T11:02:58;22.40;67.00
21770;DHT22;11046;49.558;8.674;2022-09-09T11:06:06;22.70;66.60
21770;DHT22;11046;49.558;8.674;2022-09-09T11:09:16;23.00;65.40
21770;DHT22;11046;49.558;8.674;2022-09-09T11:12:26;23.30;64.30
21770;DHT22;11046;49.558;8.674;2022-09-09T11:15:39;23.30;63.60
21770;DHT22;11046;49.558;8.674;2022-09-09T11:18:42;23.50;63.00
21770;DHT22;11046;49.558;8.674;2022-09-09T11:21:48;23.70;61.50
21770;DHT22;11046;49.558;8.674;2022-09-09T11:25:18;23.80;59.70
21770;DHT22;11046;49.558;8.674;2022-09-09T11:35:24;24.00;58.00
21770;DHT22;11046;49.558;8.674;2022-09-09T11:41:36;24.20;56.60
21770;DHT22;11046;49.558;8.674;2022-09-09T11:44:38;24.50;56.20
21770;DHT22;11046;49.558;8.674;2022-09-09T11:47:39;24.60;55.80
21770;DHT22;11046;49.558;8.674;2022-09-09T11:50:40;24.70;55.30
21770;DHT22;11046;49.558;8.674;2022-09-09T11:56:50;24.80;53.10
21770;DHT22;11046;49.558;8.674;2022-09-09T11:59:53;25.10;53.20
21770;DHT22;11046;49.558;8.674;2022-09-09T12:06:53;24.40;51.90
21770;DHT22;11046;49.558;8.674;2022-09-09T12:16:30;23.50;52.50
21770;DHT22;11046;49.558;8.674;2022-09-09T12:19:33;23.40;52.70
21770;DHT22;11046;49.558;8.674;2022-09-09T12:22:43;23.30;52.70
21770;DHT22;11046;49.558;8.674;2022-09-09T12:26:07;23.30;52.40
21770;DHT22;11046;49.558;8.674;2022-09-09T12:32:24;22.90;52.80
21770;DHT22;11046;49.558;8.674;2022-09-09T12:35:28;22.80;53.20
21770;DHT22;11046;49.558;8.674;2022-09-09T12:38:35;22.70;53.50
21770;DHT22;11046;49.558;8.674;2022-09-09T12:41:36;22.40;53.40
21770;DHT22;11046;49.558;8.674;2022-09-09T12:44:37;21.80;54.10
21770;DHT22;11046;49.558;8.674;2022-09-09T12:50:53;20.30;57.50
21770;DHT22;11046;49.558;8.674;2022-09-09T12:53:57;19.30;59.80
21770;DHT22;11046;49.558;8.674;2022-09-09T12:56:58;18.70;61.30
21770;DHT22;11046;49.558;8.674;2022-09-09T13:00:17;18.60;63.70
21770;DHT22;11046;49.558;8.674;2022-09-09T13:03:21;18.50;66.00
21770;DHT22;11046;49.558;8.674;2022-09-09T13:06:24;18.60;66.70
21770;DHT22;11046;49.558;8.674;2022-09-09T13:09:25;19.00;67.90
21770;DHT22;11046;49.558;8.674;2022-09-09T13:12:26;19.30;68.50
21770;DHT22;11046;49.558;8.674;2022-09-09T13:15:29;19.50;67.50
21770;DHT22;11046;49.558;8.674;2022-09-09T13:18:39;19.40;66.90
21770;DHT22;11046;49.558;8.674;2022-09-09T13:21:41;19.30;67.80
21770;DHT22;11046;49.558;8.674;2022-09-09T13:24:43;19.20;68.30
21770;DHT22;11046;49.558;8.674;2022-09-09T13:27:55;19.00;69.00
21770;DHT22;11046;49.558;8.674;2022-09-09T13:31:04;18.80;70.00
21770;DHT22;11046;49.558;8.674;2022-09-09T13:34:22;18.60;71.10
21770;DHT22;11046;49.558;8.674;2022-09-09T13:40:29;18.50;71.60
21770;DHT22;11046;49.558;8.674;2022-09-09T13:43:43;18.30;71.40
21770;DHT22;11046;49.558;8.674;2022-09-09T13:46:44;18.20;72.50
21770;DHT22;11046;49.558;8.674;2022-09-09T13:49:46;18.10;72.80
21770;DHT22;11046;49.558;8.674;2022-09-09T13:52:48;18.20;73.60
21770;DHT22;11046;49.558;8.674;2022-09-09T13:55:52;18.10;74.40
21770;DHT22;11046;49.558;8.674;2022-09-09T13:58:54;18.10;75.60
21770;DHT22;11046;49.558;8.674;2022-09-09T14:01:55;18.10;76.30
21770;DHT22;11046;49.558;8.674;2022-09-09T14:04:57;18.20;76.60
21770;DHT22;11046;49.558;8.674;2022-09-09T14:07:58;18.40;76.80
21770;DHT22;11046;49.558;8.674;2022-09-09T14:10:58;18.60;76.60
21770;DHT22;11046;49.558;8.674;2022-09-09T14:13:59;18.60;76.60
21770;DHT22;11046;49.558;8.674;2022-09-09T14:17:02;18.80;76.60
21770;DHT22;11046;49.558;8.674;2022-09-09T14:20:04;19.00;76.40
21770;DHT22;11046;49.558;8.674;2022-09-09T14:23:10;19.20;76.00
21770;DHT22;11046;49.558;8.674;2022-09-09T14:26:11;19.30;75.80
21770;DHT22;11046;49.558;8.674;2022-09-09T14:29:13;19.30;75.70
21770;DHT22;11046;49.558;8.674;2022-09-09T14:32:14;19.40;75.80
21770;DHT22;11046;49.558;8.674;2022-09-09T14:35:15;19.50;75.60
21770;DHT22;11046;49.558;8.674;2022-09-09T14:38:17;19.60;74.50
21770;DHT22;11046;49.558;8.674;2022-09-09T14:41:19;19.60;74.30
21770;DHT22;11046;49.558;8.674;2022-09-09T14:44:22;19.70;74.00
21770;DHT22;11046;49.558;8.674;2022-09-09T14:47:23;19.80;74.20
21770;DHT22;11046;49.558;8.674;2022-09-09T14:50:24;19.90;74.30
21770;DHT22;11046;49.558;8.674;2022-09-09T14:53:24;20.00;74.30
21770;DHT22;11046;49.558;8.674;2022-09-09T14:56:31;20.10;74.00
21770;DHT22;11046;49.558;8.674;2022-09-09T14:59:32;20.00;73.50
21770;DHT22;11046;49.558;8.674;2022-09-09T15:02:32;20.10;73.40
21770;DHT22;11046;49.558;8.674;2022-09-09T15:05:33;20.00;73.70
21770;DHT22;11046;49.558;8.674;2022-09-09T15:08:35;19.90;73.40
21770;DHT22;11046;49.558;8.674;2022-09-09T15:11:37;19.80;73.20
21770;DHT22;11046;49.558;8.674;2022-09-09T15:14:38;19.60;73.00
21770;DHT22;11046;49.558;8.674;2022-09-09T15:17:38;19.40;72.90
21770;DHT22;11046;49.558;8.674;2022-09-09T15:20:44;19.30;73.10
21770;DHT22;11046;49.558;8.674;2022-09-09T15:23:45;19.30;73.60
21770;DHT22;11046;49.558;8.674;2022-09-09T15:26:46;19.10;73.80
21770;DHT22;11046;49.558;8.674;2022-09-09T15:29:47;19.00;73.90
21770;DHT22;11046;49.558;8.674;2022-09-09T15:32:48;18.80;74.30
21770;DHT22;11046;49.558;8.674;2022-09-09T15:35:48;18.60;74.60
21770;DHT22;11046;49.558;8.674;2022-09-09T15:38:51;18.40;75.10
21770;DHT22;11046;49.558;8.674;2022-09-09T15:41:52;18.20;75.20
21770;DHT22;11046;49.558;8.674;2022-09-09T15:44:52;17.80;75.60
21770;DHT22;11046;49.558;8.674;2022-09-09T15:47:53;17.60;76.40
21770;DHT22;11046;49.558;8.674;2022-09-09T15:51:03;17.40;76.80
21770;DHT22;11046;49.558;8.674;2022-09-09T15:54:04;17.30;77.50
21770;DHT22;11046;49.558;8.674;2022-09-09T15:57:08;17.20;77.30
21770;DHT22;11046;49.558;8.674;2022-09-09T16:00:11;17.10;77.30
21770;DHT22;11046;49.558;8.674;2022-09-09T16:03:14;16.90;77.40
21770;DHT22;11046;49.558;8.674;2022-09-09T16:06:17;16.90;77.50
21770;DHT22;11046;49.558;8.674;2022-09-09T16:09:19;16.90;77.50
21770;DHT22;11046;49.558;8.674;2022-09-09T16:12:19;16.80;77.30
21770;DHT22;11046;49.558;8.674;2022-09-09T16:15:20;16.70;77.60
21770;DHT22;11046;49.558;8.674;2022-09-09T16:18:22;16.70;78.00
21770;DHT22;11046;49.558;8.674;2022-09-09T16:21:32;16.80;78.20
21770;DHT22;11046;49.558;8.674;2022-09-09T16:24:33;16.90;78.30
21770;DHT22;11046;49.558;8.674;2022-09-09T16:27:33;16.90;78.10
21770;DHT22;11046;49.558;8.674;2022-09-09T16:30:36;17.00;78.40
21770;DHT22;11046;49.558;8.674;2022-09-09T16:33:37;17.00;78.80
21770;DHT22;11046;49.558;8.674;2022-09-09T16:36:40;16.90;79.10
21770;DHT22;11046;49.558;8.674;2022-09-09T16:39:41;17.00;79.30
21770;DHT22;11046;49.558;8.674;2022-09-09T16:42:41;16.90;79.50
21770;DHT22;11046;49.558;8.674;2022-09-09T16:45:45;16.80;79.50
21770;DHT22;11046;49.558;8.674;2022-09-09T16:48:47;16.80;79.40
21770;DHT22;11046;49.558;8.674;2022-09-09T16:51:49;16.80;79.50
21770;DHT22;11046;49.558;8.674;2022-09-09T16:54:53;16.70;79.50
21770;DHT22;11046;49.558;8.674;2022-09-09T16:57:53;16.70;79.70
21770;DHT22;11046;49.558;8.674;2022-09-09T17:00:58;16.60;79.80
21770;DHT22;11046;49.558;8.674;2022-09-09T17:04:01;16.50;80.30
21770;DHT22;11046;49.558;8.674;2022-09-09T17:07:02;16.50;80.70
21770;DHT22;11046;49.558;8.674;2022-09-09T17:10:04;16.40;80.70
21770;DHT22;11046;49.558;8.674;2022-09-09T17:13:06;16.40;80.80
21770;DHT22;11046;49.558;8.674;2022-09-09T17:16:07;16.30;80.70
21770;DHT22;11046;49.558;8.674;2022-09-09T17:19:11;16.30;81.10
21770;DHT22;11046;49.558;8.674;2022-09-09T17:22:13;16.30;81.30
21770;DHT22;11046;49.558;8.674;2022-09-09T17:25:14;16.30;81.20
21770;DHT22;11046;49.558;8.674;2022-09-09T17:28:17;16.20;81.40
21770;DHT22;11046;49.558;8.674;2022-09-09T17:31:25;16.20;81.50
21770;DHT22;11046;49.558;8.674;2022-09-09T17:34:26;16.20;81.70
21770;DHT22;11046;49.558;8.674;2022-09-09T17:37:28;16.20;81.90
21770;DHT22;11046;49.558;8.674;2022-09-09T17:40:30;16.00;82.20
21770;DHT22;11046;49.558;8.674;2022-09-09T17:43:32;16.00;82.80
21770;DHT22;11046;49.558;8.674;2022-09-09T17:46:38;16.00;83.10
21770;DHT22;11046;49.558;8.674;2022-09-09T17:49:47;15.90;83.00
21770;DHT22;11046;49.558;8.674;2022-09-09T17:52:54;15.90;83.20
21770;DHT22;11046;49.558;8.674;2022-09-09T17:56:06;15.70;83.60
21770;DHT22;11046;49.558;8.674;2022-09-09T17:59:14;15.60;84.50
21770;DHT22;11046;49.558;8.674;2022-09-09T18:02:41;15.60;84.50
21770;DHT22;11046;49.558;8.674;2022-09-09T18:05:46;15.50;85.60
21770;DHT22;11046;49.558;8.674;2022-09-09T18:08:57;15.50;85.50
21770;DHT22;11046;49.558;8.674;2022-09-09T18:12:23;15.60;86.20
21770;DHT22;11046;49.558;8.674;2022-09-09T18:15:27;15.70;86.20
21770;DHT22;11046;49.558;8.674;2022-09-09T18:18:28;15.60;86.50
21770;DHT22;11046;49.558;8.674;2022-09-09T18:21:36;15.60;87.70
21770;DHT22;11046;49.558;8.674;2022-09-09T18:24:37;15.60;88.70
21770;DHT22;11046;49.558;8.674;2022-09-09T18:27:44;15.60;89.10
21770;DHT22;11046;49.558;8.674;2022-09-09T18:30:44;15.50;88.80
21770;DHT22;11046;49.558;8.674;2022-09-09T18:33:46;15.60;88.50
21770;DHT22;11046;49.558;8.674;2022-09-09T18:36:50;15.60;88.20
21770;DHT22;11046;49.558;8.674;2022-09-09T18:39:55;15.60;88.40
21770;DHT22;11046;49.558;8.674;2022-09-09T18:42:56;15.60;88.30
21770;DHT22;11046;49.558;8.674;2022-09-09T18:46:03;15.50;88.50
21770;DHT22;11046;49.558;8.674;2022-09-09T18:49:04;15.50;89.10
21770;DHT22;11046;49.558;8.674;2022-09-09T18:52:11;15.50;88.90
21770;DHT22;11046;49.558;8.674;2022-09-09T18:55:15;15.50;89.20
21770;DHT22;11046;49.558;8.674;2022-09-09T18:58:16;15.50;89.20
21770;DHT22;11046;49.558;8.674;2022-09-09T19:01:17;15.40;89.30
21770;DHT22;11046;49.558;8.674;2022-09-09T19:04:19;15.40;89.50
21770;DHT22;11046;49.558;8.674;2022-09-09T19:07:21;15.40;89.50
21770;DHT22;11046;49.558;8.674;2022-09-09T19:10:22;15.30;89.50
21770;DHT22;11046;49.558;8.674;2022-09-09T19:13:23;15.40;89.50
21770;DHT22;11046;49.558;8.674;2022-09-09T19:16:29;15.30;89.60
21770;DHT22;11046;49.558;8.674;2022-09-09T19:19:31;15.20;89.40
21770;DHT22;11046;49.558;8.674;2022-09-09T19:22:32;15.10;89.40
21770;DHT22;11046;49.558;8.674;2022-09-09T19:25:37;15.10;89.40
21770;DHT22;11046;49.558;8.674;2022-09-09T19:28:38;15.10;89.50
21770;DHT22;11046;49.558;8.674;2022-09-09T19:31:40;15.10;89.70
21770;DHT22;11046;49.558;8.674;2022-09-09T19:34:41;15.00;89.70
21770;DHT22;11046;49.558;8.674;2022-09-09T19:37:43;15.00;89.90
21770;DHT22;11046;49.558;8.674;2022-09-09T19:40:44;15.00;89.80
21770;DHT22;11046;49.558;8.674;2022-09-09T19:43:45;14.90;89.50
21770;DHT22;11046;49.558;8.674;2022-09-09T19:46:46;14.90;89.90
21770;DHT22;11046;49.558;8.674;2022-09-09T19:49:47;14.80;90.00
21770;DHT22;11046;49.558;8.674;2022-09-09T19:52:48;14.80;90.10
21770;DHT22;11046;49.558;8.674;2022-09-09T19:55:49;14.90;90.20
21770;DHT22;11046;49.558;8.674;2022-09-09T19:58:53;15.00;90.20
21770;DHT22;11046;49.558;8.674;2022-09-09T20:01:54;15.00;90.20
21770;DHT22;11046;49.558;8.674;2022-09-09T20:04:56;15.00;90.30
21770;DHT22;11046;49.558;8.674;2022-09-09T20:07:56;15.10;90.30
21770;DHT22;11046;49.558;8.674;2022-09-09T20:10:58;15.00;90.30
21770;DHT22;11046;49.558;8.674;2022-09-09T20:14:01;15.00;90.50
21770;DHT22;11046;49.558;8.674;2022-09-09T20:17:01;15.00;90.50
21770;DHT22;11046;49.558;8.674;2022-09-09T20:20:02;14.90;90.50
21770;DHT22;11046;49.558;8.674;2022-09-09T20:23:03;14.90;90.60
21770;DHT22;11046;49.558;8.674;2022-09-09T20:26:06;14.90;90.70
21770;DHT22;11046;49.558;8.674;2022-09-09T20:29:10;15.00;90.70
21770;DHT22;11046;49.558;8.674;2022-09-09T20:32:12;14.90;90.60
21770;DHT22;11046;49.558;8.674;2022-09-09T20:35:13;14.90;90.70
21770;DHT22;11046;49.558;8.674;2022-09-09T20:38:14;14.80;90.70
21770;DHT22;11046;49.558;8.674;2022-09-09T20:41:16;14.80;90.80
21770;DHT22;11046;49.558;8.674;2022-09-09T20:44:19;14.80;90.70
21770;DHT22;11046;49.558;8.674;2022-09-09T20:47:23;14.80;90.70
21770;DHT22;11046;49.558;8.674;2022-09-09T20:50:24;14.80;90.70
21770;DHT22;11046;49.558;8.674;2022-09-09T20:53:25;14.80;90.80
21770;DHT22;11046;49.558;8.674;2022-09-09T20:56:28;14.80;91.00
21770;DHT22;11046;49.558;8.674;2022-09-09T20:59:31;14.70;91.10
21770;DHT22;11046;49.558;8.674;2022-09-09T21:02:34;14.80;91.20
21770;DHT22;11046;49.558;8.674;2022-09-09T21:05:34;14.80;91.10
21770;DHT22;11046;49.558;8.674;2022-09-09T21:08:35;14.80;91.10
21770;DHT22;11046;49.558;8.674;2022-09-09T21:11:36;14.80;91.10
21770;DHT22;11046;49.558;8.674;2022-09-09T21:14:36;14.80;91.20
21770;DHT22;11046;49.558;8.674;2022-09-09T21:17:37;14.80;91.40
21770;DHT22;11046;49.558;8.674;2022-09-09T21:20:39;14.80;91.40
21770;DHT22;11046;49.558;8.674;2022-09-09T21:23:42;14.80;91.60
21770;DHT22;11046;49.558;8.674;2022-09-09T21:26:43;14.80;91.60
21770;DHT22;11046;49.558;8.674;2022-09-09T21:29:44;14.90;91.70
21770;DHT22;11046;49.558;8.674;2022-09-09T21:32:44;14.80;91.60
21770;DHT22;11046;49.558;8.674;2022-09-09T21:35:45;14.80;91.70
21770;DHT22;11046;49.558;8.674;2022-09-09T21:38:46;14.80;91.90